»·PEaware :: N149CD KVNY-KHND

N149CD :: KVNY-KHND

FLIGHT INFORMATION

Flight Status: Arrived
Operator: Privately registered:
United States
More flights under this callsign
Pilot: Nathan E. (30132)
Aircraft: CIRRUS VISIONJET
(SF50)
More flights by this aircraft type
Origin: KVNY Van Nuys
United States
Destination: KHND Henderson
United States
More flights between these airports :: More routes between these airports
Route: NUAL1 PMD DAG CLARR3
File this flight plan on PilotEdge
Remarks:
Altitude:
(Current/Filed)
23,000ft
Speed:
(Current/Filed)
300kts
Departed: 30-Dec-20 03:08 PM
Arrived: 30-Dec-20 04:14 PM
Distance/Time
Traveled:
196nm/1:05
Distance/Time
To Go:
Arrived

Flight Plot

Page will automatically refresh every two minutes.

Flight plan parsing failed; only flown route is shown


Map Options




Map Legend


Flown Route
Filed Route
Departure Airport
Arrival Airport
Navaid (VOR, NDB)
Fix

Horizontal Profiles

Position Reports

Time Latitude Longitude Heading Altitude Ground
Speed
30-Dec-20 14:34 34.208083 -118.491775 90 805ft 0kts
30-Dec-20 14:35 34.208083 -118.491775 90 805ft 0kts
30-Dec-20 14:36 34.208083 -118.491775 90 805ft 0kts
30-Dec-20 14:37 34.208083 -118.491775 90 805ft 0kts
30-Dec-20 14:38 34.208083 -118.491775 90 805ft 0kts
30-Dec-20 14:38 34.208083 -118.491775 90 805ft 0kts
30-Dec-20 14:39 34.208083 -118.491775 90 805ft 0kts
30-Dec-20 14:41 34.208083 -118.491775 90 805ft 0kts
30-Dec-20 14:41 34.208083 -118.491775 90 805ft 0kts
30-Dec-20 14:42 34.208083 -118.491775 90 805ft 0kts
30-Dec-20 14:43 34.208083 -118.491775 90 805ft 0kts
30-Dec-20 14:44 34.208083 -118.491775 90 805ft 0kts
30-Dec-20 14:45 34.208083 -118.491775 90 805ft 0kts
30-Dec-20 14:46 34.208083 -118.491775 90 805ft 0kts
30-Dec-20 14:47 34.208083 -118.491775 90 805ft 0kts
30-Dec-20 14:48 34.208083 -118.491775 90 805ft 0kts
30-Dec-20 14:49 34.208083 -118.491775 90 805ft 0kts
30-Dec-20 14:50 34.208083 -118.491775 90 805ft 0kts
30-Dec-20 14:51 34.208083 -118.491775 90 805ft 0kts
30-Dec-20 14:52 34.208083 -118.491775 90 805ft 0kts
30-Dec-20 14:53 34.208083 -118.491775 90 805ft 0kts
30-Dec-20 14:54 34.208083 -118.491775 90 805ft 0kts
30-Dec-20 14:55 34.208083 -118.491775 90 805ft 0kts
30-Dec-20 14:56 34.208083 -118.491774 90 805ft 0kts
30-Dec-20 14:57 34.208083 -118.491774 90 805ft 0kts
30-Dec-20 14:58 34.208053 -118.491543 120 805ft 8kts
30-Dec-20 14:59 34.203436 -118.490934 174 805ft 18kts
30-Dec-20 15:00 34.199131 -118.490201 176 805ft 15kts
30-Dec-20 15:01 34.196596 -118.489883 1 805ft 0kts
30-Dec-20 15:02 34.196596 -118.489883 1 805ft 0kts
30-Dec-20 15:03 34.196596 -118.489883 1 805ft 0kts
30-Dec-20 15:04 34.196618 -118.489883 1 805ft 0kts
30-Dec-20 15:05 34.196674 -118.489881 1 805ft 0kts
30-Dec-20 15:06 34.197071 -118.489444 85 805ft 14kts
30-Dec-20 15:07 34.214353 -118.490867 358 1091ft 137kts
30-Dec-20 15:08 34.237040 -118.523806 263 2828ft 176kts
30-Dec-20 15:09 34.226498 -118.580926 264 4752ft 173kts
30-Dec-20 15:10 34.217622 -118.638206 265 6516ft 173kts
30-Dec-20 15:11 34.208862 -118.695580 264 8099ft 176kts
30-Dec-20 15:12 34.199803 -118.756223 264 9032ft 207kts
30-Dec-20 15:13 34.199414 -118.829400 316 9036ft 231kts
30-Dec-20 15:14 34.250743 -118.794185 48 9029ft 275kts
30-Dec-20 15:15 34.293877 -118.716835 53 9020ft 278kts
30-Dec-20 15:16 34.334859 -118.638350 53 9546ft 271kts
30-Dec-20 15:17 34.374426 -118.562195 53 11554ft 263kts
30-Dec-20 15:18 34.412734 -118.488316 53 13552ft 257kts
30-Dec-20 15:19 34.450225 -118.415880 52 15558ft 251kts
30-Dec-20 15:20 34.486700 -118.345265 51 17559ft 244kts
30-Dec-20 15:21 34.522082 -118.276626 50 19546ft 236kts
30-Dec-20 15:22 34.555874 -118.210941 49 21521ft 225kts
30-Dec-20 15:23 34.587809 -118.148810 48 23288ft 220kts
30-Dec-20 15:24 34.625010 -118.076480 50 23296ft 279kts
30-Dec-20 15:25 34.650705 -117.979720 67 23291ft 314kts
30-Dec-20 15:26 34.674571 -117.875274 68 23287ft 324kts
30-Dec-20 15:27 34.698751 -117.768973 68 23288ft 328kts
30-Dec-20 15:28 34.723274 -117.662222 65 23295ft 327kts
30-Dec-20 15:29 34.747406 -117.554639 67 23302ft 329kts
30-Dec-20 15:30 34.772480 -117.447725 67 23302ft 329kts
30-Dec-20 15:31 34.796864 -117.343293 68 23300ft 330kts
30-Dec-20 15:32 34.796864 -117.343293 68 23300ft 330kts
30-Dec-20 15:33 34.806280 -117.302866 68 23270ft 330kts
30-Dec-20 15:34 34.831258 -117.195281 68 23263ft 330kts
30-Dec-20 15:35 34.856091 -117.087763 68 23255ft 329kts
30-Dec-20 15:36 34.880618 -116.980918 67 23252ft 327kts
30-Dec-20 15:37 34.904900 -116.874314 66 23252ft 325kts
30-Dec-20 15:38 34.925393 -116.767213 63 23256ft 320kts
30-Dec-20 15:39 34.947033 -116.660448 69 23253ft 325kts
30-Dec-20 15:40 34.978150 -116.561235 40 23263ft 305kts
30-Dec-20 15:41 35.036406 -116.486211 38 23248ft 306kts
30-Dec-20 15:42 35.095983 -116.411800 38 23244ft 308kts
30-Dec-20 15:43 35.155919 -116.336859 39 23249ft 309kts
30-Dec-20 15:44 35.216032 -116.261521 39 23248ft 309kts
30-Dec-20 15:45 35.276135 -116.186024 39 23248ft 309kts
30-Dec-20 15:46 35.336142 -116.110474 39 23248ft 310kts
30-Dec-20 15:47 35.391486 -116.040443 37 23160ft 247kts
30-Dec-20 15:48 35.437127 -115.982898 37 22154ft 226kts
30-Dec-20 15:49 35.479760 -115.928937 37 21149ft 213kts
30-Dec-20 15:50 35.521637 -115.875925 38 19365ft 223kts
30-Dec-20 15:51 35.565001 -115.820812 39 17372ft 226kts
30-Dec-20 15:52 35.607883 -115.766225 39 15372ft 220kts
30-Dec-20 15:53 35.648930 -115.713898 40 14129ft 213kts
30-Dec-20 15:54 35.693991 -115.656451 41 13359ft 253kts
30-Dec-20 15:55 35.745585 -115.590421 41 13238ft 286kts
30-Dec-20 15:56 35.788305 -115.511769 52 13006ft 267kts
30-Dec-20 15:57 35.827283 -115.432936 53 13008ft 271kts
30-Dec-20 15:58 35.865615 -115.354482 54 13004ft 251kts
30-Dec-20 15:59 35.898743 -115.287926 59 13004ft 208kts
30-Dec-20 16:00 35.926043 -115.222591 57 11796ft 215kts
30-Dec-20 16:01 35.951804 -115.161900 57 11000ft 181kts
30-Dec-20 16:03 35.952042 -115.095708 91 9895ft 202kts
30-Dec-20 16:04 35.915953 -115.058831 179 8149ft 209kts
30-Dec-20 16:05 35.860436 -115.060860 181 6995ft 188kts
30-Dec-20 16:06 35.808628 -115.064724 205 6993ft 187kts
30-Dec-20 16:07 35.811242 -115.115859 302 7032ft 147kts
30-Dec-20 16:08 35.836776 -115.139183 357 6206ft 111kts
30-Dec-20 16:09 35.864632 -115.138963 4 5359ft 85kts
30-Dec-20 16:10 35.889788 -115.137557 3 4719ft 94kts
30-Dec-20 16:11 35.916423 -115.136807 3 3964ft 96kts
30-Dec-20 16:12 35.942882 -115.135870 2 3047ft 93kts
30-Dec-20 16:13 35.966585 -115.135504 1 2463ft 56kts
30-Dec-20 16:14 35.970906 -115.135935 268 2443ft 0kts
30-Dec-20 16:14 35.970008 -115.136991 197 2445ft 4kts
30-Dec-20 16:16 35.969932 -115.137136 272 2445ft 0kts
30-Dec-20 16:17 35.969932 -115.137136 272 2445ft 0kts

Navigation Log

Ident Type
Flight plan parsing failed, navigation log unavailable